Time;durP1;ratioP1;P1;durP2;ratioP2;P2;SDS_P1;SDS_P2;PMS_P1;PMS_P2;Temp;Humidity;BMP_temperature;BMP_pressure;BME280_temperature;BME280_humidity;BME280_pressure;Samples;Min_cycle;Max_cycle;Signal;HPM_P1;HPM_P2
2022/05/24 03:02:07;;;;;;;24.70;23.50;;;16.20;99.90;;;;;;5172857;23;20241;-81
2022/05/24 03:04:34;;;;;;;23.77;22.67;;;16.20;99.90;;;;;;4958888;29;20209;-81
2022/05/24 03:09:44;;;;;;;19.10;18.10;;;16.10;99.90;;;;;;4969904;29;20201;-82
2022/05/24 03:14:56;;;;;;;18.17;17.27;;;16.00;99.90;;;;;;4970759;29;20280;-81
2022/05/24 03:17:24;;;;;;;22.90;21.73;;;15.90;99.90;;;;;;4968604;29;20185;-80
2022/05/24 03:19:51;;;;;;;15.43;14.63;;;15.80;99.90;;;;;;4956513;28;20189;-82
2022/05/24 03:22:17;;;;;;;11.30;10.70;;;15.80;99.90;;;;;;4958676;28;20204;-81
2022/05/24 03:24:43;;;;;;;8.50;8.00;;;15.70;99.90;;;;;;4960103;29;20186;-82
2022/05/24 03:27:11;;;;;;;11.97;11.20;;;15.70;99.90;;;;;;4946739;29;20253;-83
2022/05/24 03:29:47;;;;;;;43.97;41.73;;;15.60;99.90;;;;;;4947361;29;20668;-84
2022/05/24 03:32:16;;;;;;;79.20;75.13;;;15.60;99.90;;;;;;4948669;28;20264;-82
2022/05/24 03:34:42;;;;;;;78.90;74.87;;;15.50;99.90;;;;;;4938955;29;20205;-74
2022/05/24 03:37:08;;;;;;;80.93;76.63;;;15.50;99.90;;;;;;4948930;28;20188;-74
2022/05/24 03:39:34;;;;;;;62.93;59.60;;;15.60;99.90;;;;;;4953719;29;20188;-75
2022/05/24 03:42:01;;;;;;;98.03;92.93;;;15.60;99.90;;;;;;4952973;28;20229;-74
2022/05/24 03:44:28;;;;;;;72.87;69.27;;;15.50;99.90;;;;;;4955170;28;20516;-75
2022/05/24 03:46:54;;;;;;;57.63;54.30;;;15.60;99.90;;;;;;4955006;28;20284;-75
2022/05/24 03:49:20;;;;;;;42.03;39.53;;;15.70;99.90;;;;;;4955027;29;20260;-75
2022/05/24 03:51:46;;;;;;;41.80;39.17;;;15.70;99.90;;;;;;4954910;29;20589;-75
2022/05/24 03:54:12;;;;;;;58.73;55.77;;;15.70;99.90;;;;;;4954027;29;20182;-74
2022/05/24 03:56:39;;;;;;;76.60;72.60;;;15.70;99.90;;;;;;4955258;28;20347;-75
2022/05/24 03:59:05;;;;;;;78.07;74.07;;;15.70;99.90;;;;;;4952381;28;20178;-75
2022/05/24 04:01:31;;;;;;;101.37;95.60;;;15.70;99.90;;;;;;4940489;29;20305;-75
2022/05/24 04:03:57;;;;;;;95.73;91.03;;;15.60;99.90;;;;;;4936790;29;20654;-75
2022/05/24 04:06:23;;;;;;;148.07;140.57;;;15.60;99.90;;;;;;4938105;29;20249;-75
2022/05/24 04:08:49;;;;;;;106.40;101.03;;;15.60;99.90;;;;;;4954217;29;20197;-75
2022/05/24 04:11:15;;;;;;;92.40;87.60;;;15.60;99.90;;;;;;4954799;28;20264;-75
2022/05/24 04:13:42;;;;;;;109.10;103.63;;;15.70;99.90;;;;;;4954774;28;20181;-75
2022/05/24 04:16:08;;;;;;;102.73;97.50;;;15.70;99.90;;;;;;4953280;29;20193;-75
2022/05/24 04:18:35;;;;;;;95.80;90.70;;;15.70;99.90;;;;;;4954413;28;20557;-75
2022/05/24 04:21:01;;;;;;;93.13;88.07;;;15.70;99.90;;;;;;4954450;28;20611;-75
2022/05/24 04:23:27;;;;;;;157.97;149.23;;;15.70;99.90;;;;;;4953617;29;20713;-78
2022/05/24 04:25:55;;;;;;;105.40;99.97;;;15.80;99.90;;;;;;4953230;28;20685;-78
2022/05/24 04:28:22;;;;;;;42.93;40.80;;;15.70;99.90;;;;;;4954390;28;20186;-77
2022/05/24 04:30:50;;;;;;;46.50;44.13;;;15.80;99.90;;;;;;4954156;28;20197;-78
2022/05/24 04:33:17;;;;;;;39.03;36.77;;;15.80;99.90;;;;;;4953362;28;20272;-78
2022/05/24 04:35:43;;;;;;;36.53;34.40;;;15.80;99.90;;;;;;4954481;28;20672;-78
2022/05/24 04:38:09;;;;;;;18.23;17.33;;;15.80;99.90;;;;;;4952686;29;20208;-78
2022/05/24 04:43:19;;;;;;;17.93;16.97;;;15.90;99.90;;;;;;4954884;29;20761;-77
2022/05/24 04:45:45;;;;;;;21.03;19.63;;;15.90;99.90;;;;;;4957811;28;20233;-78
2022/05/24 04:48:11;;;;;;;13.10;12.30;;;15.90;99.90;;;;;;4956774;28;20193;-78
2022/05/24 04:50:37;;;;;;;8.67;8.07;;;16.00;99.90;;;;;;4953440;29;20234;-77
2022/05/24 04:53:03;;;;;;;8.47;7.90;;;16.00;99.90;;;;;;4958161;28;20170;-78
2022/05/24 04:55:29;;;;;;;14.20;13.37;;;16.00;99.90;;;;;;4955457;29;20248;-76
2022/05/24 04:57:56;;;;;;;14.53;13.57;;;16.00;99.90;;;;;;4954015;29;20198;-75
2022/05/24 05:00:24;;;;;;;18.10;17.17;;;16.00;99.90;;;;;;4953780;28;20273;-75
2022/05/24 05:02:51;;;;;;;15.63;14.83;;;16.10;99.90;;;;;;4953841;28;20190;-75
2022/05/24 05:05:18;;;;;;;16.23;15.13;;;16.20;99.90;;;;;;4952594;28;20297;-75
2022/05/24 05:07:44;;;;;;;17.97;16.73;;;16.20;99.90;;;;;;4952969;28;20178;-75
2022/05/24 05:10:12;;;;;;;18.33;17.33;;;16.30;99.90;;;;;;4952689;28;20198;-76
2022/05/24 05:12:38;;;;;;;15.80;15.00;;;16.30;99.90;;;;;;4952309;29;20708;-75
2022/05/24 05:15:05;;;;;;;12.13;11.53;;;16.40;99.90;;;;;;4953557;28;20184;-76
2022/05/24 05:17:32;;;;;;;10.87;10.07;;;16.40;99.90;;;;;;4952265;28;20203;-75
2022/05/24 05:19:59;;;;;;;8.07;7.60;;;16.50;99.90;;;;;;4952985;28;20205;-75
2022/05/24 05:22:25;;;;;;;39.40;37.37;;;16.60;99.90;;;;;;4951868;29;20214;-75
2022/05/24 05:24:52;;;;;;;129.43;122.97;;;16.60;99.90;;;;;;4951882;29;20257;-75
2022/05/24 05:27:19;;;;;;;148.80;141.43;;;16.70;99.90;;;;;;4953334;28;20188;-76
2022/05/24 05:32:32;;;;;;;21.17;19.97;;;16.70;99.90;;;;;;4953453;29;20288;-75
2022/05/24 05:34:59;;;;;;;16.43;15.63;;;16.80;99.90;;;;;;4953782;29;20269;-75
2022/05/24 05:37:28;;;;;;;12.87;12.00;;;16.90;99.90;;;;;;4952090;28;20196;-75
2022/05/24 05:39:54;;;;;;;25.40;23.93;;;16.90;99.90;;;;;;4953681;28;20189;-75
2022/05/24 05:42:20;;;;;;;135.77;129.07;;;17.00;99.90;;;;;;4953308;28;20301;-75
2022/05/24 05:44:50;;;;;;;156.17;148.00;;;17.10;99.90;;;;;;4952272;29;20213;-75
2022/05/24 05:47:17;;;;;;;28.87;27.27;;;17.30;99.90;;;;;;4951914;28;20210;-75
2022/05/24 05:49:42;;;;;;;28.57;27.17;;;17.30;99.90;;;;;;4952149;29;20192;-74
2022/05/24 05:52:08;;;;;;;22.40;21.20;;;17.30;99.90;;;;;;4953220;29;20284;-74
2022/05/24 05:54:35;;;;;;;25.47;23.70;;;17.20;99.90;;;;;;4952159;28;20221;-75
2022/05/24 05:57:01;;;;;;;18.07;16.87;;;17.30;99.90;;;;;;4951851;28;20674;-74
2022/05/24 05:59:27;;;;;;;22.73;21.10;;;17.40;99.90;;;;;;4953023;28;20236;-74
2022/05/24 06:01:58;;;;;;;21.50;20.47;;;17.40;99.90;;;;;;4952983;28;20264;-75
2022/05/24 06:04:24;;;;;;;46.87;44.40;;;17.50;99.90;;;;;;4953116;28;20200;-75
2022/05/24 06:06:52;;;;;;;54.83;51.97;;;17.60;99.90;;;;;;4951774;28;20181;-74
2022/05/24 06:09:18;;;;;;;46.63;44.13;;;17.80;99.90;;;;;;4953202;29;20185;-75
2022/05/24 06:11:44;;;;;;;20.20;19.10;;;17.90;99.90;;;;;;4945669;29;20240;-75
2022/05/24 06:14:10;;;;;;;22.63;21.47;;;18.10;99.90;;;;;;4945894;28;20284;-75
2022/05/24 06:16:37;;;;;;;20.73;19.70;;;18.30;99.90;;;;;;4952739;29;20197;-75
2022/05/24 06:19:04;;;;;;;34.77;32.97;;;18.40;99.90;;;;;;4952367;28;20178;-74
2022/05/24 06:21:33;;;;;;;30.80;29.10;;;18.60;99.90;;;;;;4952694;28;20296;-75
2022/05/24 06:24:06;;;;;;;19.70;18.23;;;18.70;99.90;;;;;;4952928;28;20186;-75
2022/05/24 06:26:33;;;;;;;14.40;13.70;;;18.70;99.90;;;;;;4951126;29;20217;-75
2022/05/24 06:29:01;;;;;;;6.73;6.40;;;18.90;99.90;;;;;;4951191;29;20697;-75
2022/05/24 06:31:27;;;;;;;8.63;8.07;;;19.10;99.90;;;;;;4951553;28;20545;-75
2022/05/24 06:33:53;;;;;;;11.27;10.67;;;19.20;99.90;;;;;;4952154;28;20181;-75
2022/05/24 06:36:19;;;;;;;15.43;14.53;;;19.50;99.90;;;;;;4950606;28;20614;-76
2022/05/24 06:38:45;;;;;;;21.97;20.77;;;20.00;99.90;;;;;;4951863;28;20217;-75
2022/05/24 06:41:11;;;;;;;40.47;38.40;;;20.30;99.90;;;;;;4951737;29;20224;-75
2022/05/24 06:43:37;;;;;;;39.33;37.33;;;20.70;99.90;;;;;;4952649;29;20189;-75
2022/05/24 06:46:10;;;;;;;6.78;6.47;;;21.60;99.90;;;;;;4951636;29;20220;-75
2022/05/24 06:48:37;;;;;;;18.80;17.80;;;22.40;99.90;;;;;;4952547;29;20189;-75
2022/05/24 06:51:10;;;;;;;24.27;22.77;;;22.20;99.90;;;;;;4952933;28;20206;-75
2022/05/24 06:53:37;;;;;;;39.58;37.72;;;22.10;99.90;;;;;;4952888;28;20178;-75
2022/05/24 06:56:03;;;;;;;32.10;30.63;;;21.90;99.90;;;;;;4952809;28;20240;-75
2022/05/24 06:58:28;;;;;;;13.27;12.63;;;21.50;99.90;;;;;;4952437;29;20186;-75
2022/05/24 07:03:38;;;;;;;9.57;9.15;;;21.30;99.90;;;;;;4947004;29;20197;-75
2022/05/24 07:06:05;;;;;;;6.50;6.30;;;21.50;99.90;;;;;;4952356;29;20211;-75
2022/05/24 07:08:31;;;;;;;17.20;16.27;;;21.60;99.90;;;;;;4952054;28;20216;-75
2022/05/24 07:10:56;;;;;;;29.67;28.10;;;21.60;99.90;;;;;;4951017;29;20202;-75
2022/05/24 07:13:22;;;;;;;8.40;7.78;;;21.50;99.90;;;;;;4954538;29;20181;-75
2022/05/24 07:15:49;;;;;;;8.50;7.75;;;21.50;99.90;;;;;;4955622;29;20220;-75
2022/05/24 07:18:15;;;;;;;10.40;9.85;;;21.60;99.90;;;;;;4955735;28;20186;-75
2022/05/24 07:20:41;;;;;;;54.85;52.13;;;21.60;99.90;;;;;;4955560;28;20201;-75
2022/05/24 07:23:12;;;;;;;16.08;15.27;;;21.50;99.90;;;;;;4955500;29;20189;-75
2022/05/24 07:25:40;;;;;;;73.27;69.53;;;21.20;99.90;;;;;;4955559;28;20217;-75
2022/05/24 07:28:06;;;;;;;6.38;6.05;;;20.90;99.90;;;;;;4955586;28;20256;-75
2022/05/24 07:30:32;;;;;;;22.77;21.63;;;20.30;99.90;;;;;;4953715;28;20285;-77
2022/05/24 07:32:59;;;;;;;16.23;15.20;;;19.10;99.90;;;;;;4955186;28;20181;-76
2022/05/24 07:35:24;;;;;;;4.87;4.70;;;17.20;99.90;;;;;;4954660;28;20233;-76
2022/05/24 07:37:50;;;;;;;16.90;16.13;;;16.00;99.90;;;;;;4954372;29;20182;-75
2022/05/24 07:45:48;;;;;;;10.60;10.07;;;13.60;99.90;;;;;;4956791;29;20288;-76
2022/05/24 07:48:14;;;;;;;8.80;8.50;;;13.50;99.90;;;;;;4956974;28;20178;-75
2022/05/24 07:50:41;;;;;;;7.73;7.43;;;13.40;99.90;;;;;;4955249;29;20305;-76
2022/05/24 07:53:08;;;;;;;5.37;5.07;;;13.40;99.90;;;;;;4949249;29;20575;-76
2022/05/24 07:55:34;;;;;;;5.27;4.80;;;13.60;99.90;;;;;;4937108;29;20193;-76
2022/05/24 07:58:00;;;;;;;9.10;8.57;;;13.80;99.90;;;;;;4941862;29;20249;-76
2022/05/24 08:00:26;;;;;;;14.17;13.47;;;14.00;99.90;;;;;;4954775;28;20280;-76
2022/05/24 08:02:53;;;;;;;24.13;23.07;;;14.10;99.90;;;;;;4953221;29;20296;-76
2022/05/24 08:05:21;;;;;;;34.27;32.67;;;14.10;99.90;;;;;;4955284;28;20637;-77
2022/05/24 08:07:49;;;;;;;24.07;22.87;;;14.20;99.90;;;;;;4953788;28;20191;-77
2022/05/24 08:10:16;;;;;;;45.27;43.17;;;14.30;99.90;;;;;;4954831;29;20182;-75
2022/05/24 08:12:42;;;;;;;36.63;34.83;;;14.40;99.90;;;;;;4949353;29;20184;-76
2022/05/24 08:15:10;;;;;;;20.23;19.27;;;14.50;99.90;;;;;;4938442;29;20186;-77
2022/05/24 08:17:36;;;;;;;44.90;42.77;;;14.70;99.90;;;;;;4935371;28;20186;-76
2022/05/24 08:20:04;;;;;;;87.53;83.37;;;15.00;99.90;;;;;;4947794;29;20232;-76
2022/05/24 08:22:30;;;;;;;40.13;38.27;;;15.20;99.90;;;;;;4953515;29;20209;-77
2022/05/24 08:24:55;;;;;;;28.83;27.53;;;15.20;99.90;;;;;;4953648;28;20585;-77
2022/05/24 08:27:21;;;;;;;11.30;10.30;;;15.00;99.90;;;;;;4952774;29;20487;-77
2022/05/24 08:29:47;;;;;;;6.47;5.30;;;14.90;99.90;;;;;;4953394;29;20177;-76
2022/05/24 08:32:12;;;;;;;28.03;26.73;;;14.80;99.90;;;;;;4954571;29;20201;-76
2022/05/24 08:34:39;;;;;;;28.20;26.90;;;14.90;99.90;;;;;;4954247;28;20639;-77
2022/05/24 08:37:05;;;;;;;68.90;65.37;;;15.20;99.90;;;;;;4953003;28;20185;-77
2022/05/24 08:39:31;;;;;;;21.27;20.10;;;15.70;99.90;;;;;;4953407;29;20189;-76
2022/05/24 08:42:12;;;;;;;44.83;42.53;;;16.10;99.90;;;;;;4954421;28;20216;-77
2022/05/24 08:50:20;;;;;;;17.90;17.00;;;17.30;99.90;;;;;;4953776;29;20607;-77
2022/05/24 08:52:58;;;;;;;20.87;19.93;;;17.20;99.90;;;;;;4954303;28;20284;-77
2022/05/24 08:55:26;;;;;;;41.13;39.10;;;17.80;99.90;;;;;;4953007;28;20268;-77
2022/05/24 08:57:56;;;;;;;8.87;8.30;;;18.40;99.90;;;;;;4953469;28;20197;-77
2022/05/24 09:00:26;;;;;;;6.30;5.93;;;18.90;99.90;;;;;;4953593;28;20616;-77
2022/05/24 09:02:51;;;;;;;6.07;5.67;;;18.90;99.90;;;;;;4953954;28;20186;-77
2022/05/24 09:05:22;;;;;;;77.07;73.33;;;18.80;99.90;;;;;;4953381;28;20245;-77
2022/05/24 09:08:18;;;;;;;113.33;107.50;;;18.90;99.90;;;;;;4953502;28;20189;-77
2022/05/24 09:10:55;;;;;;;116.73;111.03;;;19.10;99.90;;;;;;4951711;29;20313;-79
2022/05/24 09:14:02;;;;;;;50.03;47.40;;;19.30;99.90;;;;;;4952319;28;20185;-74
2022/05/24 09:16:56;;;;;;;5.03;4.87;;;19.60;99.90;;;;;;4947528;28;20536;-74
2022/05/24 09:19:32;;;;;;;12.73;12.03;;;19.50;99.90;;;;;;4969506;28;20236;-74
2022/05/24 09:22:04;;;;;;;6.97;6.37;;;19.40;99.90;;;;;;4971602;28;20212;-71
2022/05/24 09:24:57;;;;;;;12.30;11.80;;;19.50;99.90;;;;;;4971781;28;20185;-73
2022/05/24 09:27:26;;;;;;;6.07;5.87;;;19.60;99.90;;;;;;4972336;28;20272;-73
2022/05/24 09:30:17;;;;;;;5.67;5.43;;;19.70;99.90;;;;;;4971314;28;20196;-73
2022/05/24 09:32:46;;;;;;;7.93;7.60;;;19.70;99.90;;;;;;4972381;28;20185;-73
2022/05/24 09:35:26;;;;;;;32.77;31.23;;;20.30;99.90;;;;;;4972266;28;20189;-73
2022/05/24 09:38:04;;;;;;;19.40;18.53;;;20.40;99.90;;;;;;4972269;28;20271;-74
2022/05/24 09:40:43;;;;;;;19.27;18.30;;;20.20;99.90;;;;;;4972492;28;20189;-74
2022/05/24 09:43:33;;;;;;;15.33;14.63;;;20.20;99.90;;;;;;4971410;28;20649;-75
2022/05/24 09:46:17;;;;;;;23.17;22.07;;;20.20;99.90;;;;;;4972334;28;20213;-75
2022/05/24 09:49:00;;;;;;;12.57;11.90;;;20.50;99.90;;;;;;4970815;28;20200;-74
2022/05/24 09:51:30;;;;;;;14.57;13.70;;;20.50;99.90;;;;;;4971269;28;20615;-75
2022/05/24 09:53:56;;;;;;;22.60;21.60;;;20.60;99.90;;;;;;4971211;28;20187;-73
2022/05/24 09:56:33;;;;;;;21.27;20.17;;;20.20;99.90;;;;;;4971302;28;20323;-73
2022/05/24 09:59:06;;;;;;;6.77;6.40;;;19.80;99.90;;;;;;4971925;28;20209;-74
2022/05/24 10:01:40;;;;;;;8.40;8.10;;;20.10;99.90;;;;;;4972208;28;20351;-74
2022/05/24 10:04:16;;;;;;;6.63;6.43;;;20.20;99.90;;;;;;4949620;29;20272;-74
2022/05/24 10:06:54;;;;;;;26.40;24.20;;;20.10;99.90;;;;;;4951421;29;20248;-73
2022/05/24 10:09:20;;;;;;;24.93;23.43;;;19.80;99.90;;;;;;4952574;28;20668;-74
2022/05/24 10:11:51;;;;;;;9.73;9.07;;;19.30;99.90;;;;;;4952607;29;20257;-74
2022/05/24 10:14:34;;;;;;;10.87;10.13;;;19.30;99.90;;;;;;4952695;29;20666;-75
2022/05/24 10:17:19;;;;;;;24.77;23.57;;;19.20;99.90;;;;;;4951419;29;20200;-75
2022/05/24 10:19:54;;;;;;;32.30;30.70;;;19.10;99.90;;;;;;4951441;29;20182;-74
2022/05/24 10:22:44;;;;;;;9.90;9.40;;;19.30;99.90;;;;;;4952403;29;20209;-74
2022/05/24 10:25:37;;;;;;;13.13;12.53;;;19.80;99.90;;;;;;4952411;29;20210;-74
2022/05/24 10:28:34;;;;;;;8.43;8.07;;;20.60;99.90;;;;;;4951361;28;20691;-74
2022/05/24 10:31:14;;;;;;;37.55;35.78;;;21.50;99.90;;;;;;4949755;29;20210;-75
2022/05/24 10:40:22;;;;;;;31.60;30.13;;;23.30;99.90;;;;;;4960311;29;20237;-75
2022/05/24 10:43:12;;;;;;;5.43;5.22;;;23.80;99.90;;;;;;4957461;28;20211;-76
2022/05/24 10:45:51;;;;;;;4.28;4.15;;;23.90;99.90;;;;;;4956316;29;20635;-76
2022/05/24 10:48:44;;;;;;;2.92;2.83;;;22.50;99.90;;;;;;4954232;29;20277;-77
2022/05/24 10:51:37;;;;;;;6.80;6.53;;;21.70;99.90;;;;;;4929464;28;20253;-76
2022/05/24 10:54:14;;;;;;;3.13;3.03;;;22.00;99.90;;;;;;4956715;29;20272;-74
2022/05/24 10:56:55;;;;;;;4.22;4.13;;;23.00;99.90;;;;;;4955574;29;20181;-75
2022/05/24 10:59:46;;;;;;;7.85;7.22;;;24.00;99.90;;;;;;4955239;29;20185;-76
2022/05/24 11:02:30;;;;;;;2.83;2.72;;;24.60;98.90;;;;;;4955207;28;20252;-76
2022/05/24 11:05:12;;;;;;;3.38;2.70;;;25.00;97.10;;;;;;4935743;29;20218;-76
2022/05/24 11:07:38;;;;;;;2.67;2.58;;;24.10;95.90;;;;;;4936486;29;20647;-76
2022/05/24 11:10:17;;;;;;;2.40;2.30;;;22.70;97.40;;;;;;4935679;29;20658;-76
2022/05/24 11:12:53;;;;;;;4.75;4.55;;;22.20;98.70;;;;;;4935649;29;20265;-76
2022/05/24 11:15:32;;;;;;;3.15;3.03;;;22.80;98.70;;;;;;4936833;29;20186;-76
2022/05/24 11:18:20;;;;;;;3.15;3.05;;;23.90;96.50;;;;;;4936469;29;20178;-78
2022/05/24 11:20:55;;;;;;;2.67;2.58;;;24.50;93.70;;;;;;4936523;29;20585;-75
2022/05/24 11:23:27;;;;;;;3.50;3.30;;;25.10;93.30;;;;;;4936626;29;20186;-76
2022/05/24 11:25:58;;;;;;;3.10;2.90;;;25.80;93.30;;;;;;4935433;29;20218;-76
2022/05/24 11:28:30;;;;;;;5.55;5.10;;;25.40;88.50;;;;;;4936199;29;20189;-76
2022/05/24 11:31:26;;;;;;;13.73;12.43;;;24.80;89.70;;;;;;4935331;29;20265;-76
2022/05/24 11:33:53;;;;;;;8.32;7.63;;;24.60;90.70;;;;;;4936532;28;20190;-75
2022/05/24 11:36:32;;;;;;;7.10;6.43;;;24.30;89.70;;;;;;4936397;29;20234;-76
2022/05/24 11:39:14;;;;;;;3.63;3.42;;;24.60;90.70;;;;;;4934838;29;20217;-75
2022/05/24 11:41:40;;;;;;;4.07;3.63;;;25.00;86.00;;;;;;4936402;29;20269;-76
2022/05/24 11:44:28;;;;;;;4.35;4.13;;;25.90;87.70;;;;;;4936445;29;20599;-76
2022/05/24 11:46:56;;;;;;;3.10;2.90;;;26.20;83.30;;;;;;4935930;29;20200;-76
2022/05/24 11:49:21;;;;;;;3.28;3.17;;;25.80;80.70;;;;;;4935982;29;20193;-76
2022/05/24 11:51:51;;;;;;;3.55;3.45;;;25.30;77.40;;;;;;4935085;29;20206;-76
2022/05/24 11:54:18;;;;;;;4.82;4.63;;;24.00;78.70;;;;;;4936097;29;20658;-76
2022/05/24 11:57:01;;;;;;;4.30;4.20;;;23.70;83.70;;;;;;4934645;29;20183;-76
2022/05/24 11:59:48;;;;;;;3.42;3.22;;;24.70;86.20;;;;;;4934631;29;20182;-76
2022/05/24 12:02:33;;;;;;;3.65;3.20;;;26.00;78.50;;;;;;4934505;29;20218;-75
2022/05/24 12:07:58;;;;;;;3.10;2.72;;;24.60;81.70;;;;;;4935567;29;20207;-74
2022/05/24 12:10:26;;;;;;;3.60;3.50;;;25.30;77.90;;;;;;4934532;29;20192;-75
2022/05/24 12:13:04;;;;;;;3.00;2.80;;;26.30;76.00;;;;;;4932287;29;20179;-75
2022/05/24 12:15:29;;;;;;;3.35;3.15;;;26.60;76.00;;;;;;4937026;29;20540;-74
2022/05/24 12:17:58;;;;;;;3.05;2.95;;;26.40;71.90;;;;;;4933419;29;20202;-74
2022/05/24 12:20:49;;;;;;;3.20;3.03;;;26.60;74.00;;;;;;4946832;29;20272;-74
2022/05/24 12:23:30;;;;;;;3.47;3.38;;;26.60;70.50;;;;;;4954291;28;20186;-75
2022/05/24 12:26:04;;;;;;;5.30;5.00;;;27.50;68.10;;;;;;4954693;29;20355;-73
2022/05/24 12:28:35;;;;;;;4.43;4.22;;;27.60;65.70;;;;;;4953871;29;20182;-75
2022/05/24 12:31:24;;;;;;;3.90;3.80;;;27.20;68.00;;;;;;4954324;29;20205;-75
2022/05/24 12:33:53;;;;;;;2.80;2.70;;;26.40;69.40;;;;;;4954275;29;20190;-75
2022/05/24 12:36:33;;;;;;;5.05;4.82;;;26.40;69.60;;;;;;4952995;28;20188;-76
2022/05/24 12:39:08;;;;;;;2.90;2.78;;;26.40;66.40;;;;;;4952642;29;20185;-76
2022/05/24 12:41:45;;;;;;;3.70;3.50;;;27.00;67.70;;;;;;4953789;28;20302;-76
2022/05/24 12:44:17;;;;;;;5.43;5.22;;;28.40;65.90;;;;;;4953776;29;20564;-73
2022/05/24 12:46:49;;;;;;;3.72;3.63;;;29.00;63.70;;;;;;4952756;28;20276;-75
2022/05/24 12:49:52;;;;;;;4.93;4.72;;;29.10;61.00;;;;;;4954342;28;20604;-74
2022/05/24 12:52:24;;;;;;;7.78;7.10;;;28.60;60.60;;;;;;4951022;29;20209;-74
2022/05/24 12:54:52;;;;;;;3.17;3.08;;;27.90;58.80;;;;;;4953745;28;20237;-75
2022/05/24 12:57:29;;;;;;;4.93;4.72;;;27.90;58.40;;;;;;4951880;28;20193;-75
2022/05/24 12:59:58;;;;;;;4.80;4.60;;;27.60;59.00;;;;;;4952442;28;20190;-75
2022/05/24 13:02:32;;;;;;;6.15;5.95;;;27.70;57.50;;;;;;4952182;29;20213;-75
2022/05/24 13:05:21;;;;;;;5.43;5.13;;;28.10;59.20;;;;;;4952040;28;20219;-75
2022/05/24 13:07:50;;;;;;;4.75;4.60;;;29.00;55.90;;;;;;4942295;29;20281;-75
2022/05/24 13:10:29;;;;;;;5.13;4.93;;;28.40;56.60;;;;;;4952860;28;20237;-75
2022/05/24 13:13:09;;;;;;;9.60;9.13;;;27.10;58.00;;;;;;4952015;29;20292;-75
2022/05/24 13:15:37;;;;;;;14.15;13.18;;;25.90;58.90;;;;;;4948131;29;20570;-75
2022/05/24 13:18:10;;;;;;;4.05;3.85;;;24.70;61.40;;;;;;4950374;29;20190;-75
2022/05/24 13:21:00;;;;;;;3.47;3.38;;;24.40;65.60;;;;;;4952733;29;20256;-75
2022/05/24 13:23:36;;;;;;;7.85;7.47;;;26.00;64.30;;;;;;4955555;28;20600;-75
2022/05/24 13:26:02;;;;;;;11.27;10.65;;;27.10;58.40;;;;;;4955233;28;20213;-75
2022/05/24 13:28:33;;;;;;;11.10;10.68;;;27.90;57.30;;;;;;4952615;29;20174;-75
2022/05/24 13:33:51;;;;;;;3.38;3.28;;;28.60;54.60;;;;;;4953426;29;20182;-75
2022/05/24 13:36:30;;;;;;;4.65;4.35;;;28.70;53.30;;;;;;4952202;28;20188;-75
2022/05/24 13:39:02;;;;;;;4.38;4.18;;;28.50;54.10;;;;;;4953172;28;20632;-75
2022/05/24 13:41:37;;;;;;;3.95;3.85;;;28.30;53.30;;;;;;4952000;28;20210;-74
2022/05/24 13:44:11;;;;;;;4.18;4.07;;;28.40;52.70;;;;;;4953163;29;20185;-75
2022/05/24 13:46:50;;;;;;;3.53;3.42;;;27.80;53.80;;;;;;4953199;29;20236;-75
2022/05/24 13:49:26;;;;;;;22.90;21.90;;;25.90;55.60;;;;;;4952136;28;20189;-75
2022/05/24 13:51:52;;;;;;;4.65;4.45;;;24.50;61.60;;;;;;4951986;28;20592;-75
2022/05/24 13:54:37;;;;;;;2.85;2.75;;;23.70;66.00;;;;;;4953145;28;20178;-75
2022/05/24 13:57:03;;;;;;;3.15;3.05;;;23.20;69.20;;;;;;4953185;28;20212;-76
2022/05/24 13:59:29;;;;;;;3.45;3.35;;;22.80;69.00;;;;;;4953158;28;20182;-76
2022/05/24 14:01:57;;;;;;;3.10;3.00;;;22.70;70.70;;;;;;4953151;29;20236;-76
2022/05/24 14:04:27;;;;;;;6.07;5.88;;;22.40;70.80;;;;;;4953241;28;20186;-76
2022/05/24 14:06:58;;;;;;;7.63;7.13;;;22.30;72.80;;;;;;4952618;28;20248;-74
2022/05/24 14:09:28;;;;;;;7.43;7.13;;;22.20;72.10;;;;;;4953222;28;20245;-74
2022/05/24 14:11:55;;;;;;;8.52;8.13;;;22.20;73.70;;;;;;4951744;28;20248;-75
2022/05/24 14:14:22;;;;;;;9.57;8.88;;;22.20;73.60;;;;;;4952968;28;20196;-75
2022/05/24 14:16:50;;;;;;;16.95;15.13;;;22.90;72.80;;;;;;4952843;28;20277;-75
2022/05/24 14:19:16;;;;;;;12.07;10.80;;;24.70;68.70;;;;;;4951861;29;20185;-74
2022/05/24 14:21:43;;;;;;;8.00;7.22;;;26.20;64.20;;;;;;4953694;28;20216;-83
2022/05/24 14:24:14;;;;;;;6.35;5.97;;;27.20;59.90;;;;;;4957445;28;20831;-76
2022/05/24 14:26:41;;;;;;;5.07;4.63;;;26.50;60.50;;;;;;4957721;28;20220;-77
2022/05/24 14:29:08;;;;;;;5.18;4.70;;;26.50;61.70;;;;;;4957993;28;20657;-75
2022/05/24 14:31:35;;;;;;;12.20;11.60;;;27.40;59.70;;;;;;4956993;29;20756;-76
2022/05/24 14:34:03;;;;;;;7.93;7.55;;;28.60;57.40;;;;;;4955795;29;20203;-75
2022/05/24 14:36:30;;;;;;;3.83;3.58;;;29.80;53.60;;;;;;4956934;28;20192;-75
2022/05/24 14:38:56;;;;;;;4.40;4.20;;;30.80;51.80;;;;;;4956968;28;20234;-77
2022/05/24 14:41:22;;;;;;;4.00;3.80;;;30.30;52.50;;;;;;4957302;28;20216;-75
2022/05/24 14:43:56;;;;;;;3.83;3.63;;;28.90;53.00;;;;;;4957435;28;20181;-75
2022/05/24 14:46:22;;;;;;;3.78;3.58;;;27.90;56.10;;;;;;4957298;28;20251;-74
2022/05/24 14:48:47;;;;;;;12.35;11.70;;;27.10;57.60;;;;;;4955612;29;20898;-78
2022/05/24 14:51:16;;;;;;;15.02;14.38;;;26.00;60.80;;;;;;4956859;28;20212;-76
2022/05/24 14:53:42;;;;;;;4.38;4.15;;;25.10;61.00;;;;;;4956762;28;20220;-77
2022/05/24 14:56:08;;;;;;;4.00;3.80;;;24.40;66.00;;;;;;4955413;28;20273;-76
2022/05/24 14:58:34;;;;;;;4.78;4.38;;;24.10;64.80;;;;;;4956041;28;20194;-76
2022/05/24 15:01:01;;;;;;;3.83;3.55;;;24.00;66.40;;;;;;4955014;28;20240;-76
2022/05/24 15:03:27;;;;;;;3.60;3.30;;;24.50;64.60;;;;;;4956368;28;20190;-76
2022/05/24 15:05:53;;;;;;;3.38;3.17;;;25.30;62.80;;;;;;4956554;28;20228;-76
2022/05/24 15:16:32;;;;;;;5.72;5.32;;;28.90;52.50;;;;;;4995370;28;20204;-76
2022/05/24 15:18:59;;;;;;;8.30;7.93;;;27.80;55.10;;;;;;4994420;28;20290;-77
2022/05/24 15:21:28;;;;;;;14.13;13.43;;;26.50;58.20;;;;;;4998756;28;20247;-76
2022/05/24 15:23:56;;;;;;;14.57;13.88;;;25.90;58.80;;;;;;4991364;28;20213;-75
2022/05/24 15:26:28;;;;;;;7.03;6.72;;;25.10;63.20;;;;;;4975979;28;20217;-76
2022/05/24 15:28:56;;;;;;;3.13;2.90;;;24.30;64.00;;;;;;4975575;28;20189;-76
2022/05/24 15:31:24;;;;;;;3.63;3.33;;;23.80;65.80;;;;;;4975421;28;20247;-76
2022/05/24 15:33:50;;;;;;;11.38;8.50;;;23.50;66.10;;;;;;4974830;28;20237;-76
2022/05/24 15:36:16;;;;;;;10.85;9.50;;;24.10;66.50;;;;;;4975300;28;20604;-76
2022/05/24 15:38:41;;;;;;;7.70;6.90;;;26.20;61.10;;;;;;4974966;28;20275;-77
2022/05/24 15:41:08;;;;;;;14.95;14.05;;;27.80;58.10;;;;;;4975545;28;20268;-76
2022/05/24 15:43:45;;;;;;;13.68;12.88;;;28.60;55.90;;;;;;4975131;28;20245;-76
2022/05/24 15:46:13;;;;;;;17.58;16.77;;;27.50;56.70;;;;;;4975144;28;20217;-77
2022/05/24 15:48:39;;;;;;;15.63;14.80;;;26.50;57.30;;;;;;4975080;28;20264;-76
2022/05/24 15:51:05;;;;;;;8.88;8.18;;;25.60;58.90;;;;;;4973902;28;20267;-76
2022/05/24 15:53:31;;;;;;;4.72;4.28;;;24.40;61.50;;;;;;4974900;28;20177;-76
2022/05/24 15:56:01;;;;;;;7.00;6.40;;;23.80;65.00;;;;;;4974968;28;20554;-77
2022/05/24 15:58:27;;;;;;;8.13;7.25;;;23.20;67.90;;;;;;4984493;28;20192;-77
2022/05/24 16:00:53;;;;;;;9.13;8.32;;;22.80;71.60;;;;;;4979962;28;20595;-78
2022/05/24 16:03:20;;;;;;;10.77;10.02;;;22.50;73.10;;;;;;4984126;28;20236;-77
2022/05/24 16:11:18;;;;;;;14.40;13.55;;;21.60;74.50;;;;;;4985375;28;20205;-77
2022/05/24 16:13:47;;;;;;;10.98;10.38;;;21.50;75.00;;;;;;4983752;28;20272;-77
2022/05/24 16:16:14;;;;;;;9.02;8.35;;;21.30;73.90;;;;;;4981902;28;20708;-78
2022/05/24 16:18:40;;;;;;;6.68;6.38;;;21.20;75.60;;;;;;4980547;28;20185;-77
2022/05/24 16:21:06;;;;;;;5.90;5.13;;;21.20;76.20;;;;;;4987905;28;20188;-75
2022/05/24 16:23:34;;;;;;;4.82;4.63;;;21.20;76.40;;;;;;4976925;28;20216;-78
2022/05/24 16:26:00;;;;;;;4.50;4.30;;;21.20;76.10;;;;;;4974883;28;20275;-78
2022/05/24 16:28:26;;;;;;;4.77;3.97;;;21.20;77.70;;;;;;4976940;28;20185;-77
2022/05/24 16:30:51;;;;;;;10.27;9.77;;;21.10;77.10;;;;;;4974973;28;20538;-77
2022/05/24 16:33:20;;;;;;;13.40;12.67;;;21.10;78.50;;;;;;4974150;28;20294;-77
2022/05/24 16:35:48;;;;;;;28.23;26.97;;;21.00;78.70;;;;;;4977031;28;20185;-77
2022/05/24 16:38:16;;;;;;;54.77;52.17;;;20.90;79.50;;;;;;4981157;28;20215;-80
2022/05/24 16:40:42;;;;;;;62.17;58.72;;;20.80;82.00;;;;;;4981270;28;20181;-78
2022/05/24 16:43:09;;;;;;;69.47;65.37;;;20.90;80.40;;;;;;4979610;28;20185;-77
2022/05/24 16:45:35;;;;;;;53.30;50.50;;;20.90;80.40;;;;;;4978695;28;20277;-78